<?xml version="1.0" encoding="UTF-8"?><gpx creator="Wikiloc - https://www.wikiloc.com" version="1.1" xmlns="http://www.topografix.com/GPX/1/1" xmlns:xsi="http://www.w3.org/2001/XMLSchema-instance" xsi:schemaLocation="http://www.topografix.com/GPX/1/1 http://www.topografix.com/GPX/1/1/gpx.xsd"><metadata><name>Wikiloc - PENCONA ALTERNATIVA 26</name><author><name>AYTO. ALDEANUEVA DE LA VERA</name><link href="https://www.wikiloc.com/wikiloc/user.do?id=10383794"><text>AYTO. ALDEANUEVA DE LA VERA on Wikiloc</text></link></author><link href="https://www.wikiloc.com/trail-running-trails/pencona-alternativa-26-261728075"><text>PENCONA ALTERNATIVA 26 on Wikiloc</text></link><time>2026-04-29T08:17:56.642Z</time></metadata><wpt lat="40.156489" lon="-5.709578"><ele>975.4</ele><time>2026-04-29T08:17:56.642Z</time><name>AVI 1 KM 7,3</name><cmt></cmt><desc></desc></wpt><wpt lat="40.146911" lon="-5.730848"><ele>978.1</ele><time>2026-04-29T08:17:56.642Z</time><name>AVI 2 KM 10,5</name><cmt></cmt><desc></desc></wpt><wpt lat="40.138232" lon="-5.735613"><ele>940.2</ele><time>2026-04-29T08:17:56.643Z</time><name>AVI 3 KM 13</name><cmt></cmt><desc></desc></wpt><wpt lat="40.132584" lon="-5.735691"><ele>849.4</ele><time>2026-04-29T08:17:56.643Z</time><name>AVI 4 KM 14,8</name><cmt></cmt><desc></desc></wpt><trk><name>PENCONA ALTERNATIVA 26 - Wikiloc</name><cmt></cmt><desc></desc><trkseg><trkpt lat="40.128062" lon="-5.701020"><ele>647.448</ele><time>2026-04-29T11:04:40.466979169Z</time></trkpt><trkpt lat="40.128449" lon="-5.700494"><ele>647.661</ele><time>2026-04-29T11:05:00.466982465Z</time></trkpt><trkpt lat="40.128906" lon="-5.699856"><ele>647.117</ele><time>2026-04-29T11:05:20.466985160Z</time></trkpt><trkpt lat="40.129373" lon="-5.699323"><ele>647.709</ele><time>2026-04-29T11:05:40.466987695Z</time></trkpt><trkpt lat="40.129382" lon="-5.698675"><ele>649.596</ele><time>2026-04-29T11:06:00.466990079Z</time></trkpt><trkpt lat="40.129853" lon="-5.698674"><ele>655.740</ele><time>2026-04-29T11:06:20.466992283Z</time></trkpt><trkpt lat="40.130142" lon="-5.698296"><ele>658.295</ele><time>2026-04-29T11:06:40.466994477Z</time></trkpt><trkpt lat="40.130473" lon="-5.697927"><ele>663.921</ele><time>2026-04-29T11:07:00.466996631Z</time></trkpt><trkpt lat="40.130608" lon="-5.697633"><ele>663.166</ele><time>2026-04-29T11:07:20.466998775Z</time></trkpt><trkpt lat="40.130948" lon="-5.697397"><ele>665.252</ele><time>2026-04-29T11:07:40.467000859Z</time></trkpt><trkpt lat="40.131309" lon="-5.697050"><ele>662.474</ele><time>2026-04-29T11:08:00.467003003Z</time></trkpt><trkpt lat="40.131647" lon="-5.696632"><ele>663.061</ele><time>2026-04-29T11:08:20.467005267Z</time></trkpt><trkpt lat="40.132018" lon="-5.696069"><ele>662.049</ele><time>2026-04-29T11:08:40.467007442Z</time></trkpt><trkpt lat="40.132332" lon="-5.695539"><ele>657.256</ele><time>2026-04-29T11:09:00.467009716Z</time></trkpt><trkpt lat="40.132594" lon="-5.695273"><ele>656.659</ele><time>2026-04-29T11:09:20.467011860Z</time></trkpt><trkpt lat="40.132999" lon="-5.694970"><ele>653.514</ele><time>2026-04-29T11:09:40.467014054Z</time></trkpt><trkpt lat="40.133286" lon="-5.694790"><ele>649.209</ele><time>2026-04-29T11:10:00.467016248Z</time></trkpt><trkpt lat="40.133808" lon="-5.694795"><ele>645.527</ele><time>2026-04-29T11:10:20.467018432Z</time></trkpt><trkpt lat="40.133913" lon="-5.694485"><ele>641.071</ele><time>2026-04-29T11:10:40.467020586Z</time></trkpt><trkpt lat="40.134174" lon="-5.694530"><ele>647.266</ele><time>2026-04-29T11:11:00.467022690Z</time></trkpt><trkpt lat="40.135254" lon="-5.694901"><ele>669.732</ele><time>2026-04-29T11:11:20.469881019Z</time></trkpt><trkpt lat="40.135087" lon="-5.694540"><ele>674.537</ele><time>2026-04-29T11:11:40.469884675Z</time></trkpt><trkpt lat="40.135386" lon="-5.694667"><ele>677.933</ele><time>2026-04-29T11:12:00.469887080Z</time></trkpt><trkpt lat="40.135611" lon="-5.694638"><ele>681.595</ele><time>2026-04-29T11:12:20.469889414Z</time></trkpt><trkpt lat="40.135819" lon="-5.694500"><ele>690.712</ele><time>2026-04-29T11:12:40.469891659Z</time></trkpt><trkpt lat="40.136080" lon="-5.694348"><ele>692.440</ele><time>2026-04-29T11:13:00.469894103Z</time></trkpt><trkpt lat="40.136162" lon="-5.694066"><ele>700.637</ele><time>2026-04-29T11:13:20.469896628Z</time></trkpt><trkpt lat="40.136682" lon="-5.693620"><ele>710.949</ele><time>2026-04-29T11:13:40.469899022Z</time></trkpt><trkpt lat="40.137191" lon="-5.693309"><ele>721.213</ele><time>2026-04-29T11:14:00.469901367Z</time></trkpt><trkpt lat="40.137609" lon="-5.693156"><ele>726.209</ele><time>2026-04-29T11:14:20.469903661Z</time></trkpt><trkpt lat="40.137948" lon="-5.693130"><ele>733.215</ele><time>2026-04-29T11:14:40.469905815Z</time></trkpt><trkpt lat="40.138281" lon="-5.693146"><ele>739.789</ele><time>2026-04-29T11:15:00.469908009Z</time></trkpt><trkpt lat="40.139166" lon="-5.693138"><ele>758.384</ele><time>2026-04-29T11:15:20.469910243Z</time></trkpt><trkpt lat="40.139474" lon="-5.693122"><ele>766.970</ele><time>2026-04-29T11:15:40.469912437Z</time></trkpt><trkpt lat="40.139640" lon="-5.693142"><ele>769.885</ele><time>2026-04-29T11:16:00.469914632Z</time></trkpt><trkpt lat="40.139564" lon="-5.692950"><ele>772.561</ele><time>2026-04-29T11:16:20.469916806Z</time></trkpt><trkpt lat="40.139705" lon="-5.692898"><ele>775.643</ele><time>2026-04-29T11:16:40.469918970Z</time></trkpt><trkpt lat="40.139243" lon="-5.692521"><ele>780.680</ele><time>2026-04-29T11:17:00.469921174Z</time></trkpt><trkpt lat="40.139827" lon="-5.692366"><ele>787.928</ele><time>2026-04-29T11:17:20.469923358Z</time></trkpt><trkpt lat="40.139802" lon="-5.692206"><ele>790.772</ele><time>2026-04-29T11:17:40.469925652Z</time></trkpt><trkpt lat="40.139647" lon="-5.692042"><ele>794.413</ele><time>2026-04-29T11:18:00.469927916Z</time></trkpt><trkpt lat="40.139324" lon="-5.691892"><ele>799.814</ele><time>2026-04-29T11:18:20.469930211Z</time></trkpt><trkpt lat="40.139102" lon="-5.691701"><ele>805.109</ele><time>2026-04-29T11:18:40.469932575Z</time></trkpt><trkpt lat="40.138947" lon="-5.691490"><ele>808.619</ele><time>2026-04-29T11:19:00.469934869Z</time></trkpt><trkpt lat="40.138858" lon="-5.691254"><ele>811.253</ele><time>2026-04-29T11:19:20.469937124Z</time></trkpt><trkpt lat="40.138887" lon="-5.691210"><ele>812.568</ele><time>2026-04-29T11:19:40.469939418Z</time></trkpt><trkpt lat="40.138964" lon="-5.691224"><ele>813.874</ele><time>2026-04-29T11:20:00.469941612Z</time></trkpt><trkpt lat="40.139017" lon="-5.691100"><ele>816.959</ele><time>2026-04-29T11:20:20.469943846Z</time></trkpt><trkpt lat="40.139249" lon="-5.691103"><ele>820.755</ele><time>2026-04-29T11:20:40.469946120Z</time></trkpt><trkpt lat="40.139272" lon="-5.691034"><ele>821.827</ele><time>2026-04-29T11:21:00.469948375Z</time></trkpt><trkpt lat="40.139212" lon="-5.690872"><ele>823.234</ele><time>2026-04-29T11:21:20.469950659Z</time></trkpt><trkpt lat="40.139168" lon="-5.690666"><ele>825.472</ele><time>2026-04-29T11:21:40.469952953Z</time></trkpt><trkpt lat="40.139168" lon="-5.690519"><ele>827.211</ele><time>2026-04-29T11:22:00.469955288Z</time></trkpt><trkpt lat="40.139262" lon="-5.690385"><ele>829.321</ele><time>2026-04-29T11:22:20.469957642Z</time></trkpt><trkpt lat="40.139422" lon="-5.690384"><ele>832.203</ele><time>2026-04-29T11:22:40.469959966Z</time></trkpt><trkpt lat="40.139761" lon="-5.690322"><ele>837.109</ele><time>2026-04-29T11:23:00.469962231Z</time></trkpt><trkpt lat="40.140219" lon="-5.690308"><ele>840.193</ele><time>2026-04-29T11:23:20.469964475Z</time></trkpt><trkpt lat="40.140704" lon="-5.690342"><ele>840.217</ele><time>2026-04-29T11:23:40.469966759Z</time></trkpt><trkpt lat="40.141216" lon="-5.690481"><ele>840.752</ele><time>2026-04-29T11:24:00.469969053Z</time></trkpt><trkpt lat="40.141486" lon="-5.690643"><ele>842.898</ele><time>2026-04-29T11:24:20.469971268Z</time></trkpt><trkpt lat="40.141721" lon="-5.690778"><ele>848.673</ele><time>2026-04-29T11:24:40.469973562Z</time></trkpt><trkpt lat="40.141784" lon="-5.691072"><ele>849.459</ele><time>2026-04-29T11:25:00.469975826Z</time></trkpt><trkpt lat="40.141891" lon="-5.691346"><ele>852.411</ele><time>2026-04-29T11:25:20.469978010Z</time></trkpt><trkpt lat="40.142047" lon="-5.691574"><ele>855.418</ele><time>2026-04-29T11:25:40.469996655Z</time></trkpt><trkpt lat="40.142326" lon="-5.691704"><ele>861.826</ele><time>2026-04-29T11:26:00.469998909Z</time></trkpt><trkpt lat="40.142543" lon="-5.692064"><ele>862.634</ele><time>2026-04-29T11:26:20.470001143Z</time></trkpt><trkpt lat="40.142669" lon="-5.692219"><ele>865.455</ele><time>2026-04-29T11:26:40.470003328Z</time></trkpt><trkpt lat="40.142904" lon="-5.692302"><ele>870.810</ele><time>2026-04-29T11:27:00.470005552Z</time></trkpt><trkpt lat="40.143204" lon="-5.692366"><ele>874.709</ele><time>2026-04-29T11:27:20.470007716Z</time></trkpt><trkpt lat="40.143173" lon="-5.692281"><ele>877.025</ele><time>2026-04-29T11:27:40.470010Z</time></trkpt><trkpt lat="40.143014" lon="-5.692166"><ele>877.819</ele><time>2026-04-29T11:28:00.470012214Z</time></trkpt><trkpt lat="40.142893" lon="-5.691999"><ele>876.954</ele><time>2026-04-29T11:28:20.470014308Z</time></trkpt><trkpt lat="40.142863" lon="-5.691854"><ele>878.350</ele><time>2026-04-29T11:28:40.470016442Z</time></trkpt><trkpt lat="40.142898" lon="-5.691781"><ele>880.655</ele><time>2026-04-29T11:29:00.470018596Z</time></trkpt><trkpt lat="40.142977" lon="-5.691783"><ele>882.971</ele><time>2026-04-29T11:29:20.470020700Z</time></trkpt><trkpt lat="40.143001" lon="-5.691733"><ele>884.423</ele><time>2026-04-29T11:29:40.470022874Z</time></trkpt><trkpt lat="40.142957" lon="-5.691599"><ele>885.180</ele><time>2026-04-29T11:30:00.470025048Z</time></trkpt><trkpt lat="40.142983" lon="-5.691453"><ele>888.068</ele><time>2026-04-29T11:30:20.470027262Z</time></trkpt><trkpt lat="40.143028" lon="-5.691392"><ele>890.214</ele><time>2026-04-29T11:30:40.470029496Z</time></trkpt><trkpt lat="40.143115" lon="-5.691391"><ele>891.654</ele><time>2026-04-29T11:31:00.470031681Z</time></trkpt><trkpt lat="40.143211" lon="-5.691364"><ele>893.109</ele><time>2026-04-29T11:31:20.470033825Z</time></trkpt><trkpt lat="40.143342" lon="-5.691246"><ele>896.109</ele><time>2026-04-29T11:31:40.470036009Z</time></trkpt><trkpt lat="40.143496" lon="-5.691133"><ele>897.753</ele><time>2026-04-29T11:32:00.470038183Z</time></trkpt><trkpt lat="40.143561" lon="-5.691113"><ele>898.037</ele><time>2026-04-29T11:32:20.470040357Z</time></trkpt><trkpt lat="40.143580" lon="-5.691031"><ele>898.852</ele><time>2026-04-29T11:32:40.470042501Z</time></trkpt><trkpt lat="40.143963" lon="-5.690888"><ele>905.168</ele><time>2026-04-29T11:33:00.470044705Z</time></trkpt><trkpt lat="40.144472" lon="-5.690700"><ele>911.343</ele><time>2026-04-29T11:33:20.470046879Z</time></trkpt><trkpt lat="40.145108" lon="-5.690541"><ele>920.659</ele><time>2026-04-29T11:33:40.470049023Z</time></trkpt><trkpt lat="40.145340" lon="-5.690252"><ele>925.311</ele><time>2026-04-29T11:34:00.470051247Z</time></trkpt><trkpt lat="40.145446" lon="-5.690079"><ele>928.058</ele><time>2026-04-29T11:34:20.470053401Z</time></trkpt><trkpt lat="40.145550" lon="-5.689878"><ele>929.556</ele><time>2026-04-29T11:34:40.470055605Z</time></trkpt><trkpt lat="40.145711" lon="-5.689670"><ele>932.052</ele><time>2026-04-29T11:35:00.470057860Z</time></trkpt><trkpt lat="40.145911" lon="-5.689478"><ele>935.253</ele><time>2026-04-29T11:35:20.470060074Z</time></trkpt><trkpt lat="40.146128" lon="-5.689307"><ele>939.008</ele><time>2026-04-29T11:35:40.470062218Z</time></trkpt><trkpt lat="40.146342" lon="-5.689181"><ele>943.109</ele><time>2026-04-29T11:36:00.470064442Z</time></trkpt><trkpt lat="40.146377" lon="-5.689235"><ele>945.167</ele><time>2026-04-29T11:36:20.470066586Z</time></trkpt><trkpt lat="40.146330" lon="-5.689446"><ele>947.941</ele><time>2026-04-29T11:36:40.470068730Z</time></trkpt><trkpt lat="40.146291" lon="-5.689600"><ele>948.096</ele><time>2026-04-29T11:37:00.470070904Z</time></trkpt><trkpt lat="40.146187" lon="-5.689805"><ele>945.812</ele><time>2026-04-29T11:37:20.470073078Z</time></trkpt><trkpt lat="40.146135" lon="-5.689973"><ele>944.937</ele><time>2026-04-29T11:37:40.470075262Z</time></trkpt><trkpt lat="40.146092" lon="-5.690289"><ele>944.583</ele><time>2026-04-29T11:38:00.470077416Z</time></trkpt><trkpt lat="40.146094" lon="-5.690587"><ele>946.235</ele><time>2026-04-29T11:38:20.470079540Z</time></trkpt><trkpt lat="40.146128" lon="-5.690797"><ele>947.012</ele><time>2026-04-29T11:38:40.470081664Z</time></trkpt><trkpt lat="40.146129" lon="-5.690936"><ele>947.250</ele><time>2026-04-29T11:39:00.470083848Z</time></trkpt><trkpt lat="40.146189" lon="-5.691053"><ele>949.858</ele><time>2026-04-29T11:39:20.470086092Z</time></trkpt><trkpt lat="40.146252" lon="-5.691185"><ele>952.552</ele><time>2026-04-29T11:39:40.470088286Z</time></trkpt><trkpt lat="40.146308" lon="-5.691271"><ele>955.117</ele><time>2026-04-29T11:40:00.470090430Z</time></trkpt><trkpt lat="40.146381" lon="-5.691464"><ele>959.209</ele><time>2026-04-29T11:40:20.470092615Z</time></trkpt><trkpt lat="40.146406" lon="-5.691381"><ele>960.067</ele><time>2026-04-29T11:40:40.470094929Z</time></trkpt><trkpt lat="40.146412" lon="-5.691241"><ele>959.331</ele><time>2026-04-29T11:41:00.470097123Z</time></trkpt><trkpt lat="40.146451" lon="-5.691143"><ele>960.856</ele><time>2026-04-29T11:41:20.470099287Z</time></trkpt><trkpt lat="40.146478" lon="-5.691033"><ele>962.662</ele><time>2026-04-29T11:41:40.470101451Z</time></trkpt><trkpt lat="40.146454" lon="-5.690944"><ele>962.047</ele><time>2026-04-29T11:42:00.470103655Z</time></trkpt><trkpt lat="40.146433" lon="-5.690847"><ele>961.883</ele><time>2026-04-29T11:42:20.470105839Z</time></trkpt><trkpt lat="40.146469" lon="-5.690861"><ele>963.385</ele><time>2026-04-29T11:42:40.470107983Z</time></trkpt><trkpt lat="40.146544" lon="-5.690961"><ele>966.322</ele><time>2026-04-29T11:43:00.470110147Z</time></trkpt><trkpt lat="40.146614" lon="-5.691070"><ele>969.910</ele><time>2026-04-29T11:43:20.470112382Z</time></trkpt><trkpt lat="40.146646" lon="-5.691243"><ele>973.261</ele><time>2026-04-29T11:43:40.470114676Z</time></trkpt><trkpt lat="40.146643" lon="-5.691489"><ele>975.921</ele><time>2026-04-29T11:44:00.470116880Z</time></trkpt><trkpt lat="40.146652" lon="-5.691640"><ele>978.613</ele><time>2026-04-29T11:44:20.470119134Z</time></trkpt><trkpt lat="40.146686" lon="-5.691632"><ele>980.009</ele><time>2026-04-29T11:44:40.470121358Z</time></trkpt><trkpt lat="40.146744" lon="-5.691532"><ele>980.358</ele><time>2026-04-29T11:45:00.470123583Z</time></trkpt><trkpt lat="40.146798" lon="-5.691324"><ele>979.672</ele><time>2026-04-29T11:45:20.470125707Z</time></trkpt><trkpt lat="40.146868" lon="-5.691030"><ele>979.077</ele><time>2026-04-29T11:45:40.470127871Z</time></trkpt><trkpt lat="40.146925" lon="-5.690886"><ele>979.823</ele><time>2026-04-29T11:46:00.470130075Z</time></trkpt><trkpt lat="40.147007" lon="-5.690725"><ele>982.968</ele><time>2026-04-29T11:46:20.470132229Z</time></trkpt><trkpt lat="40.147040" lon="-5.690772"><ele>983.754</ele><time>2026-04-29T11:46:40.470134403Z</time></trkpt><trkpt lat="40.147028" lon="-5.690924"><ele>983.716</ele><time>2026-04-29T11:47:00.470136577Z</time></trkpt><trkpt lat="40.147030" lon="-5.691156"><ele>985.533</ele><time>2026-04-29T11:47:20.470138781Z</time></trkpt><trkpt lat="40.147052" lon="-5.691229"><ele>987.091</ele><time>2026-04-29T11:47:40.470140955Z</time></trkpt><trkpt lat="40.147091" lon="-5.691218"><ele>988.214</ele><time>2026-04-29T11:48:00.470143239Z</time></trkpt><trkpt lat="40.147124" lon="-5.691174"><ele>989.054</ele><time>2026-04-29T11:48:20.470145413Z</time></trkpt><trkpt lat="40.147141" lon="-5.691023"><ele>988.409</ele><time>2026-04-29T11:48:40.470147618Z</time></trkpt><trkpt lat="40.147166" lon="-5.690870"><ele>988.209</ele><time>2026-04-29T11:49:00.470149802Z</time></trkpt><trkpt lat="40.147183" lon="-5.690708"><ele>988.763</ele><time>2026-04-29T11:49:20.470151956Z</time></trkpt><trkpt lat="40.147241" lon="-5.690542"><ele>990.447</ele><time>2026-04-29T11:49:40.470154120Z</time></trkpt><trkpt lat="40.147337" lon="-5.690358"><ele>992.852</ele><time>2026-04-29T11:50:00.470156264Z</time></trkpt><trkpt lat="40.147390" lon="-5.690287"><ele>994.068</ele><time>2026-04-29T11:50:20.470158428Z</time></trkpt><trkpt lat="40.147416" lon="-5.690131"><ele>994.683</ele><time>2026-04-29T11:50:40.470160612Z</time></trkpt><trkpt lat="40.147546" lon="-5.690026"><ele>996.779</ele><time>2026-04-29T11:51:00.470168276Z</time></trkpt><trkpt lat="40.147625" lon="-5.690020"><ele>997.861</ele><time>2026-04-29T11:51:20.470170460Z</time></trkpt><trkpt lat="40.147664" lon="-5.690219"><ele>998.428</ele><time>2026-04-29T11:51:40.470172634Z</time></trkpt><trkpt lat="40.147784" lon="-5.690400"><ele>1000.626</ele><time>2026-04-29T11:52:00.470174979Z</time></trkpt><trkpt lat="40.147898" lon="-5.690612"><ele>1004.164</ele><time>2026-04-29T11:52:20.470177303Z</time></trkpt><trkpt lat="40.148097" lon="-5.690793"><ele>1007.906</ele><time>2026-04-29T11:52:40.470179597Z</time></trkpt><trkpt lat="40.148317" lon="-5.691140"><ele>1009.616</ele><time>2026-04-29T11:53:00.470181791Z</time></trkpt><trkpt lat="40.148454" lon="-5.691382"><ele>1011.509</ele><time>2026-04-29T11:53:20.470184006Z</time></trkpt><trkpt lat="40.148588" lon="-5.691522"><ele>1013.538</ele><time>2026-04-29T11:53:40.470186200Z</time></trkpt><trkpt lat="40.148694" lon="-5.691662"><ele>1014.242</ele><time>2026-04-29T11:54:00.470188324Z</time></trkpt><trkpt lat="40.148842" lon="-5.691795"><ele>1016.437</ele><time>2026-04-29T11:54:20.470190508Z</time></trkpt><trkpt lat="40.148948" lon="-5.691883"><ele>1017.913</ele><time>2026-04-29T11:54:40.470192662Z</time></trkpt><trkpt lat="40.149049" lon="-5.691982"><ele>1018.558</ele><time>2026-04-29T11:55:00.470194806Z</time></trkpt><trkpt lat="40.149230" lon="-5.692128"><ele>1021.114</ele><time>2026-04-29T11:55:20.470196980Z</time></trkpt><trkpt lat="40.149306" lon="-5.692319"><ele>1021.626</ele><time>2026-04-29T11:55:40.470199164Z</time></trkpt><trkpt lat="40.149442" lon="-5.692453"><ele>1024.423</ele><time>2026-04-29T11:56:00.470201308Z</time></trkpt><trkpt lat="40.149576" lon="-5.692665"><ele>1025.781</ele><time>2026-04-29T11:56:20.470203502Z</time></trkpt><trkpt lat="40.149697" lon="-5.692894"><ele>1027.512</ele><time>2026-04-29T11:56:40.470205776Z</time></trkpt><trkpt lat="40.149820" lon="-5.693060"><ele>1031.932</ele><time>2026-04-29T11:57:00.470208031Z</time></trkpt><trkpt lat="40.149885" lon="-5.693220"><ele>1033.505</ele><time>2026-04-29T11:57:20.470210395Z</time></trkpt><trkpt lat="40.149838" lon="-5.693386"><ele>1031.109</ele><time>2026-04-29T11:57:40.470216386Z</time></trkpt><trkpt lat="40.149742" lon="-5.693639"><ele>1027.773</ele><time>2026-04-29T11:58:00.470218550Z</time></trkpt><trkpt lat="40.149798" lon="-5.693972"><ele>1030.167</ele><time>2026-04-29T11:58:20.470220734Z</time></trkpt><trkpt lat="40.149868" lon="-5.694272"><ele>1031.632</ele><time>2026-04-29T11:58:40.470222928Z</time></trkpt><trkpt lat="40.149909" lon="-5.694467"><ele>1031.498</ele><time>2026-04-29T11:59:00.470225072Z</time></trkpt><trkpt lat="40.150108" lon="-5.694504"><ele>1034.743</ele><time>2026-04-29T11:59:20.470229210Z</time></trkpt><trkpt lat="40.150299" lon="-5.694587"><ele>1035.169</ele><time>2026-04-29T11:59:40.470231474Z</time></trkpt><trkpt lat="40.150513" lon="-5.694645"><ele>1035.431</ele><time>2026-04-29T12:00:00.470233648Z</time></trkpt><trkpt lat="40.150882" lon="-5.694648"><ele>1037.028</ele><time>2026-04-29T12:00:20.470235953Z</time></trkpt><trkpt lat="40.151244" lon="-5.694441"><ele>1038.746</ele><time>2026-04-29T12:00:40.470238187Z</time></trkpt><trkpt lat="40.151685" lon="-5.694239"><ele>1039.942</ele><time>2026-04-29T12:01:00.470240441Z</time></trkpt><trkpt lat="40.151921" lon="-5.694107"><ele>1041.722</ele><time>2026-04-29T12:01:20.470242635Z</time></trkpt><trkpt lat="40.152239" lon="-5.694036"><ele>1041.114</ele><time>2026-04-29T12:01:40.470244849Z</time></trkpt><trkpt lat="40.152642" lon="-5.693926"><ele>1043.409</ele><time>2026-04-29T12:02:00.470247024Z</time></trkpt><trkpt lat="40.152806" lon="-5.693943"><ele>1041.346</ele><time>2026-04-29T12:02:20.470249258Z</time></trkpt><trkpt lat="40.152898" lon="-5.694047"><ele>1036.450</ele><time>2026-04-29T12:02:40.470251402Z</time></trkpt><trkpt lat="40.153086" lon="-5.693964"><ele>1036.065</ele><time>2026-04-29T12:03:00.470253596Z</time></trkpt><trkpt lat="40.153287" lon="-5.693814"><ele>1037.391</ele><time>2026-04-29T12:03:20.470255760Z</time></trkpt><trkpt lat="40.153616" lon="-5.693691"><ele>1034.196</ele><time>2026-04-29T12:03:40.470257984Z</time></trkpt><trkpt lat="40.153744" lon="-5.693505"><ele>1034.412</ele><time>2026-04-29T12:04:00.470260138Z</time></trkpt><trkpt lat="40.153984" lon="-5.693289"><ele>1030.554</ele><time>2026-04-29T12:04:20.470262292Z</time></trkpt><trkpt lat="40.154070" lon="-5.693051"><ele>1033.811</ele><time>2026-04-29T12:04:40.470264596Z</time></trkpt><trkpt lat="40.154262" lon="-5.692849"><ele>1032.919</ele><time>2026-04-29T12:05:00.470266821Z</time></trkpt><trkpt lat="40.154493" lon="-5.692730"><ele>1029.421</ele><time>2026-04-29T12:05:20.470269145Z</time></trkpt><trkpt lat="40.154586" lon="-5.692669"><ele>1027.641</ele><time>2026-04-29T12:05:40.470271359Z</time></trkpt><trkpt lat="40.154671" lon="-5.692524"><ele>1029.805</ele><time>2026-04-29T12:06:00.470277390Z</time></trkpt><trkpt lat="40.154805" lon="-5.692533"><ele>1028.009</ele><time>2026-04-29T12:06:20.470280646Z</time></trkpt><trkpt lat="40.154943" lon="-5.692510"><ele>1028.854</ele><time>2026-04-29T12:06:40.470282911Z</time></trkpt><trkpt lat="40.154912" lon="-5.692741"><ele>1024.278</ele><time>2026-04-29T12:07:00.470285105Z</time></trkpt><trkpt lat="40.154928" lon="-5.692912"><ele>1022.543</ele><time>2026-04-29T12:07:20.470287339Z</time></trkpt><trkpt lat="40.155020" lon="-5.693126"><ele>1024.289</ele><time>2026-04-29T12:07:40.470289523Z</time></trkpt><trkpt lat="40.155014" lon="-5.693209"><ele>1022.934</ele><time>2026-04-29T12:08:00.470291727Z</time></trkpt><trkpt lat="40.155092" lon="-5.693302"><ele>1024.560</ele><time>2026-04-29T12:08:20.470293931Z</time></trkpt><trkpt lat="40.155094" lon="-5.693396"><ele>1023.242</ele><time>2026-04-29T12:08:40.470296105Z</time></trkpt><trkpt lat="40.155116" lon="-5.693477"><ele>1022.819</ele><time>2026-04-29T12:09:00.470298330Z</time></trkpt><trkpt lat="40.155211" lon="-5.693546"><ele>1024.457</ele><time>2026-04-29T12:09:20.470300544Z</time></trkpt><trkpt lat="40.155258" lon="-5.693697"><ele>1023.081</ele><time>2026-04-29T12:09:40.470302798Z</time></trkpt><trkpt lat="40.155312" lon="-5.693782"><ele>1022.361</ele><time>2026-04-29T12:10:00.470305012Z</time></trkpt><trkpt lat="40.155395" lon="-5.693823"><ele>1022.217</ele><time>2026-04-29T12:10:20.470307266Z</time></trkpt><trkpt lat="40.155453" lon="-5.693824"><ele>1022.709</ele><time>2026-04-29T12:10:40.470309510Z</time></trkpt><trkpt lat="40.155568" lon="-5.693982"><ele>1018.070</ele><time>2026-04-29T12:11:00.470311725Z</time></trkpt><trkpt lat="40.155729" lon="-5.694006"><ele>1017.944</ele><time>2026-04-29T12:11:20.470313919Z</time></trkpt><trkpt lat="40.155840" lon="-5.694099"><ele>1014.879</ele><time>2026-04-29T12:11:40.470316123Z</time></trkpt><trkpt lat="40.156052" lon="-5.694132"><ele>1015.845</ele><time>2026-04-29T12:12:00.470318337Z</time></trkpt><trkpt lat="40.156152" lon="-5.694266"><ele>1012.550</ele><time>2026-04-29T12:12:20.470320541Z</time></trkpt><trkpt lat="40.156226" lon="-5.694339"><ele>1011.956</ele><time>2026-04-29T12:12:40.470322755Z</time></trkpt><trkpt lat="40.156317" lon="-5.694449"><ele>1010.758</ele><time>2026-04-29T12:13:00.470324949Z</time></trkpt><trkpt lat="40.156400" lon="-5.694543"><ele>1009.485</ele><time>2026-04-29T12:13:20.470327153Z</time></trkpt><trkpt lat="40.156498" lon="-5.694661"><ele>1007.823</ele><time>2026-04-29T12:13:40.470329358Z</time></trkpt><trkpt lat="40.156584" lon="-5.694735"><ele>1008.369</ele><time>2026-04-29T12:14:00.470331642Z</time></trkpt><trkpt lat="40.156632" lon="-5.694812"><ele>1009.604</ele><time>2026-04-29T12:14:20.470333836Z</time></trkpt><trkpt lat="40.156704" lon="-5.694851"><ele>1011.224</ele><time>2026-04-29T12:14:40.470336020Z</time></trkpt><trkpt lat="40.156811" lon="-5.694900"><ele>1012.709</ele><time>2026-04-29T12:15:00.470338254Z</time></trkpt><trkpt lat="40.156877" lon="-5.694966"><ele>1012.848</ele><time>2026-04-29T12:15:20.470340478Z</time></trkpt><trkpt lat="40.156999" lon="-5.694968"><ele>1014.452</ele><time>2026-04-29T12:15:40.470342672Z</time></trkpt><trkpt lat="40.157039" lon="-5.695095"><ele>1017.887</ele><time>2026-04-29T12:16:00.470350006Z</time></trkpt><trkpt lat="40.156920" lon="-5.695172"><ele>1019.093</ele><time>2026-04-29T12:16:20.470352250Z</time></trkpt><trkpt lat="40.156778" lon="-5.695233"><ele>1020.188</ele><time>2026-04-29T12:16:40.470354435Z</time></trkpt><trkpt lat="40.156662" lon="-5.695305"><ele>1021.734</ele><time>2026-04-29T12:17:00.470356649Z</time></trkpt><trkpt lat="40.156569" lon="-5.695367"><ele>1021.776</ele><time>2026-04-29T12:17:20.470358813Z</time></trkpt><trkpt lat="40.156492" lon="-5.695444"><ele>1022.893</ele><time>2026-04-29T12:17:40.470360997Z</time></trkpt><trkpt lat="40.156406" lon="-5.695598"><ele>1026.371</ele><time>2026-04-29T12:18:00.470363191Z</time></trkpt><trkpt lat="40.156279" lon="-5.695740"><ele>1027.456</ele><time>2026-04-29T12:18:20.470365485Z</time></trkpt><trkpt lat="40.156274" lon="-5.695783"><ele>1028.559</ele><time>2026-04-29T12:18:40.470367679Z</time></trkpt><trkpt lat="40.156317" lon="-5.695873"><ele>1031.714</ele><time>2026-04-29T12:19:00.470369883Z</time></trkpt><trkpt lat="40.156255" lon="-5.695993"><ele>1033.609</ele><time>2026-04-29T12:19:20.470372078Z</time></trkpt><trkpt lat="40.156249" lon="-5.696103"><ele>1036.397</ele><time>2026-04-29T12:19:40.470374292Z</time></trkpt><trkpt lat="40.156186" lon="-5.696129"><ele>1035.891</ele><time>2026-04-29T12:20:00.470376466Z</time></trkpt><trkpt lat="40.156178" lon="-5.696196"><ele>1037.386</ele><time>2026-04-29T12:20:20.470378640Z</time></trkpt><trkpt lat="40.156184" lon="-5.696232"><ele>1038.492</ele><time>2026-04-29T12:20:40.470380854Z</time></trkpt><trkpt lat="40.156136" lon="-5.696301"><ele>1039.257</ele><time>2026-04-29T12:21:00.470383078Z</time></trkpt><trkpt lat="40.156117" lon="-5.696388"><ele>1041.183</ele><time>2026-04-29T12:21:20.470385262Z</time></trkpt><trkpt lat="40.156153" lon="-5.696502"><ele>1045.175</ele><time>2026-04-29T12:21:40.470387446Z</time></trkpt><trkpt lat="40.156101" lon="-5.696612"><ele>1047.312</ele><time>2026-04-29T12:22:00.470389640Z</time></trkpt><trkpt lat="40.156098" lon="-5.696734"><ele>1051.540</ele><time>2026-04-29T12:22:20.470391875Z</time></trkpt><trkpt lat="40.155998" lon="-5.696836"><ele>1053.616</ele><time>2026-04-29T12:22:40.470394119Z</time></trkpt><trkpt lat="40.155916" lon="-5.696930"><ele>1055.376</ele><time>2026-04-29T12:23:00.470396363Z</time></trkpt><trkpt lat="40.155857" lon="-5.696996"><ele>1056.013</ele><time>2026-04-29T12:23:20.470398557Z</time></trkpt><trkpt lat="40.155786" lon="-5.697064"><ele>1056.609</ele><time>2026-04-29T12:23:40.470400771Z</time></trkpt><trkpt lat="40.155715" lon="-5.697242"><ele>1060.383</ele><time>2026-04-29T12:24:00.470402975Z</time></trkpt><trkpt lat="40.155606" lon="-5.697316"><ele>1060.057</ele><time>2026-04-29T12:24:20.470405240Z</time></trkpt><trkpt lat="40.155560" lon="-5.697303"><ele>1058.832</ele><time>2026-04-29T12:24:40.470407444Z</time></trkpt><trkpt lat="40.155549" lon="-5.697361"><ele>1059.988</ele><time>2026-04-29T12:25:00.470409658Z</time></trkpt><trkpt lat="40.155431" lon="-5.697496"><ele>1061.173</ele><time>2026-04-29T12:25:20.470411862Z</time></trkpt><trkpt lat="40.155357" lon="-5.697627"><ele>1061.819</ele><time>2026-04-29T12:25:40.470414016Z</time></trkpt><trkpt lat="40.155278" lon="-5.697681"><ele>1061.021</ele><time>2026-04-29T12:26:00.470416210Z</time></trkpt><trkpt lat="40.155222" lon="-5.697758"><ele>1060.648</ele><time>2026-04-29T12:26:20.470418404Z</time></trkpt><trkpt lat="40.155145" lon="-5.697818"><ele>1059.646</ele><time>2026-04-29T12:26:40.470420588Z</time></trkpt><trkpt lat="40.155101" lon="-5.697928"><ele>1060.118</ele><time>2026-04-29T12:27:00.470422873Z</time></trkpt><trkpt lat="40.154861" lon="-5.698195"><ele>1058.098</ele><time>2026-04-29T12:27:20.470425047Z</time></trkpt><trkpt lat="40.154630" lon="-5.698419"><ele>1057.217</ele><time>2026-04-29T12:27:40.470427251Z</time></trkpt><trkpt lat="40.154487" lon="-5.698588"><ele>1057.309</ele><time>2026-04-29T12:28:00.470429475Z</time></trkpt><trkpt lat="40.154365" lon="-5.698844"><ele>1057.083</ele><time>2026-04-29T12:28:20.470431679Z</time></trkpt><trkpt lat="40.154311" lon="-5.699115"><ele>1057.017</ele><time>2026-04-29T12:28:40.470433843Z</time></trkpt><trkpt lat="40.154151" lon="-5.699738"><ele>1055.892</ele><time>2026-04-29T12:29:00.470436017Z</time></trkpt><trkpt lat="40.154135" lon="-5.700102"><ele>1056.638</ele><time>2026-04-29T12:29:20.470438191Z</time></trkpt><trkpt lat="40.154224" lon="-5.700680"><ele>1058.813</ele><time>2026-04-29T12:29:40.470440375Z</time></trkpt><trkpt lat="40.154227" lon="-5.700967"><ele>1059.489</ele><time>2026-04-29T12:30:00.470442539Z</time></trkpt><trkpt lat="40.154286" lon="-5.701500"><ele>1061.551</ele><time>2026-04-29T12:30:20.470444743Z</time></trkpt><trkpt lat="40.154465" lon="-5.702336"><ele>1060.828</ele><time>2026-04-29T12:30:40.470446918Z</time></trkpt><trkpt lat="40.154673" lon="-5.702827"><ele>1060.356</ele><time>2026-04-29T12:31:00.470449092Z</time></trkpt><trkpt lat="40.154978" lon="-5.703371"><ele>1062.334</ele><time>2026-04-29T12:31:20.470451376Z</time></trkpt><trkpt lat="40.155116" lon="-5.703735"><ele>1062.555</ele><time>2026-04-29T12:31:40.470453670Z</time></trkpt><trkpt lat="40.155223" lon="-5.704067"><ele>1062.410</ele><time>2026-04-29T12:32:00.470455874Z</time></trkpt><trkpt lat="40.155618" lon="-5.704968"><ele>1063.609</ele><time>2026-04-29T12:32:20.470458038Z</time></trkpt><trkpt lat="40.155927" lon="-5.705424"><ele>1064.855</ele><time>2026-04-29T12:32:40.470460253Z</time></trkpt><trkpt lat="40.156146" lon="-5.705640"><ele>1064.089</ele><time>2026-04-29T12:33:00.470462417Z</time></trkpt><trkpt lat="40.156376" lon="-5.705692"><ele>1064.914</ele><time>2026-04-29T12:33:20.470464611Z</time></trkpt><trkpt lat="40.156752" lon="-5.705693"><ele>1064.490</ele><time>2026-04-29T12:33:40.470466835Z</time></trkpt><trkpt lat="40.157586" lon="-5.705701"><ele>1063.535</ele><time>2026-04-29T12:34:00.470469019Z</time></trkpt><trkpt lat="40.157962" lon="-5.705623"><ele>1064.221</ele><time>2026-04-29T12:34:20.470471203Z</time></trkpt><trkpt lat="40.158325" lon="-5.705432"><ele>1062.823</ele><time>2026-04-29T12:34:40.470473337Z</time></trkpt><trkpt lat="40.158543" lon="-5.705295"><ele>1061.890</ele><time>2026-04-29T12:35:00.470476042Z</time></trkpt><trkpt lat="40.158974" lon="-5.705356"><ele>1059.898</ele><time>2026-04-29T12:35:20.470478236Z</time></trkpt><trkpt lat="40.159153" lon="-5.705515"><ele>1055.515</ele><time>2026-04-29T12:35:40.470480540Z</time></trkpt><trkpt lat="40.159309" lon="-5.705613"><ele>1050.565</ele><time>2026-04-29T12:36:00.470482815Z</time></trkpt><trkpt lat="40.159585" lon="-5.705636"><ele>1048.411</ele><time>2026-04-29T12:36:20.470485039Z</time></trkpt><trkpt lat="40.159791" lon="-5.705693"><ele>1049.009</ele><time>2026-04-29T12:36:40.470487203Z</time></trkpt><trkpt lat="40.159780" lon="-5.705919"><ele>1046.633</ele><time>2026-04-29T12:37:00.470489427Z</time></trkpt><trkpt lat="40.159595" lon="-5.706332"><ele>1041.077</ele><time>2026-04-29T12:37:20.470491661Z</time></trkpt><trkpt lat="40.159459" lon="-5.706608"><ele>1037.232</ele><time>2026-04-29T12:37:40.470493825Z</time></trkpt><trkpt lat="40.158948" lon="-5.707348"><ele>1018.848</ele><time>2026-04-29T12:38:00.470495999Z</time></trkpt><trkpt lat="40.158796" lon="-5.707598"><ele>1012.823</ele><time>2026-04-29T12:38:20.470498204Z</time></trkpt><trkpt lat="40.158773" lon="-5.707804"><ele>1009.789</ele><time>2026-04-29T12:38:40.470500368Z</time></trkpt><trkpt lat="40.158824" lon="-5.707976"><ele>1005.761</ele><time>2026-04-29T12:39:00.470502552Z</time></trkpt><trkpt lat="40.158982" lon="-5.708119"><ele>1002.718</ele><time>2026-04-29T12:39:20.470504716Z</time></trkpt><trkpt lat="40.159284" lon="-5.708185"><ele>1002.626</ele><time>2026-04-29T12:39:40.470506890Z</time></trkpt><trkpt lat="40.159528" lon="-5.708289"><ele>1003.654</ele><time>2026-04-29T12:40:00.470509174Z</time></trkpt><trkpt lat="40.159459" lon="-5.708428"><ele>1003.456</ele><time>2026-04-29T12:40:20.470511408Z</time></trkpt><trkpt lat="40.159215" lon="-5.708591"><ele>1001.111</ele><time>2026-04-29T12:40:40.470513592Z</time></trkpt><trkpt lat="40.158807" lon="-5.708905"><ele>999.009</ele><time>2026-04-29T12:41:00.470520145Z</time></trkpt><trkpt lat="40.158385" lon="-5.708950"><ele>992.927</ele><time>2026-04-29T12:41:20.470522469Z</time></trkpt><trkpt lat="40.157698" lon="-5.709097"><ele>985.411</ele><time>2026-04-29T12:41:40.470524623Z</time></trkpt><trkpt lat="40.157421" lon="-5.709100"><ele>980.276</ele><time>2026-04-29T12:42:00.470526847Z</time></trkpt><trkpt lat="40.157237" lon="-5.709097"><ele>978.292</ele><time>2026-04-29T12:42:20.470529031Z</time></trkpt><trkpt lat="40.157037" lon="-5.709254"><ele>976.527</ele><time>2026-04-29T12:42:40.470531205Z</time></trkpt><trkpt lat="40.156983" lon="-5.709341"><ele>976.043</ele><time>2026-04-29T12:43:00.470533379Z</time></trkpt><trkpt lat="40.156455" lon="-5.709601"><ele>975.825</ele><time>2026-04-29T12:43:20.470535543Z</time></trkpt><trkpt lat="40.155790" lon="-5.709306"><ele>965.722</ele><time>2026-04-29T12:43:40.470537707Z</time></trkpt><trkpt lat="40.155423" lon="-5.709304"><ele>958.150</ele><time>2026-04-29T12:44:00.470539861Z</time></trkpt><trkpt lat="40.154959" lon="-5.709894"><ele>950.278</ele><time>2026-04-29T12:44:20.470542076Z</time></trkpt><trkpt lat="40.154774" lon="-5.710102"><ele>949.233</ele><time>2026-04-29T12:44:40.470544270Z</time></trkpt><trkpt lat="40.154103" lon="-5.710690"><ele>945.726</ele><time>2026-04-29T12:45:00.470546474Z</time></trkpt><trkpt lat="40.153755" lon="-5.710865"><ele>941.909</ele><time>2026-04-29T12:45:20.470548618Z</time></trkpt><trkpt lat="40.153189" lon="-5.710867"><ele>932.759</ele><time>2026-04-29T12:45:40.470550842Z</time></trkpt><trkpt lat="40.152923" lon="-5.710868"><ele>928.953</ele><time>2026-04-29T12:46:00.470553006Z</time></trkpt><trkpt lat="40.152566" lon="-5.710994"><ele>927.068</ele><time>2026-04-29T12:46:20.470555140Z</time></trkpt><trkpt lat="40.152324" lon="-5.710876"><ele>924.314</ele><time>2026-04-29T12:46:40.470557314Z</time></trkpt><trkpt lat="40.152462" lon="-5.711629"><ele>941.969</ele><time>2026-04-29T12:47:00.470559458Z</time></trkpt><trkpt lat="40.152448" lon="-5.711918"><ele>947.395</ele><time>2026-04-29T12:47:20.470561632Z</time></trkpt><trkpt lat="40.151757" lon="-5.713175"><ele>982.587</ele><time>2026-04-29T12:47:40.470563856Z</time></trkpt><trkpt lat="40.151190" lon="-5.713293"><ele>989.774</ele><time>2026-04-29T12:48:00.470566050Z</time></trkpt><trkpt lat="40.150399" lon="-5.713851"><ele>1012.552</ele><time>2026-04-29T12:48:20.470568305Z</time></trkpt><trkpt lat="40.150519" lon="-5.714323"><ele>1018.413</ele><time>2026-04-29T12:48:40.470570639Z</time></trkpt><trkpt lat="40.150788" lon="-5.714297"><ele>1018.043</ele><time>2026-04-29T12:49:00.470572823Z</time></trkpt><trkpt lat="40.151410" lon="-5.714505"><ele>1023.507</ele><time>2026-04-29T12:49:20.470575087Z</time></trkpt><trkpt lat="40.152616" lon="-5.714824"><ele>1028.409</ele><time>2026-04-29T12:49:40.470577332Z</time></trkpt><trkpt lat="40.152339" lon="-5.715084"><ele>1035.723</ele><time>2026-04-29T12:50:00.470579506Z</time></trkpt><trkpt lat="40.151722" lon="-5.715427"><ele>1043.387</ele><time>2026-04-29T12:50:20.470581670Z</time></trkpt><trkpt lat="40.150938" lon="-5.715461"><ele>1046.052</ele><time>2026-04-29T12:50:40.470583834Z</time></trkpt><trkpt lat="40.149972" lon="-5.715426"><ele>1044.388</ele><time>2026-04-29T12:51:00.470585998Z</time></trkpt><trkpt lat="40.149779" lon="-5.715601"><ele>1047.753</ele><time>2026-04-29T12:51:20.470588142Z</time></trkpt><trkpt lat="40.149900" lon="-5.715767"><ele>1051.069</ele><time>2026-04-29T12:51:40.470590346Z</time></trkpt><trkpt lat="40.150730" lon="-5.715887"><ele>1055.641</ele><time>2026-04-29T12:52:00.470592570Z</time></trkpt><trkpt lat="40.150797" lon="-5.716138"><ele>1067.328</ele><time>2026-04-29T12:52:20.470594734Z</time></trkpt><trkpt lat="40.150163" lon="-5.716298"><ele>1065.956</ele><time>2026-04-29T12:52:40.470596908Z</time></trkpt><trkpt lat="40.149646" lon="-5.716361"><ele>1065.734</ele><time>2026-04-29T12:53:00.470599172Z</time></trkpt><trkpt lat="40.149395" lon="-5.716495"><ele>1068.355</ele><time>2026-04-29T12:53:20.470601367Z</time></trkpt><trkpt lat="40.149161" lon="-5.716842"><ele>1075.810</ele><time>2026-04-29T12:53:40.470603571Z</time></trkpt><trkpt lat="40.148808" lon="-5.717212"><ele>1082.609</ele><time>2026-04-29T12:54:00.470605785Z</time></trkpt><trkpt lat="40.148420" lon="-5.718024"><ele>1086.245</ele><time>2026-04-29T12:54:20.470607999Z</time></trkpt><trkpt lat="40.148362" lon="-5.719021"><ele>1093.939</ele><time>2026-04-29T12:54:40.470610193Z</time></trkpt><trkpt lat="40.148301" lon="-5.719794"><ele>1093.394</ele><time>2026-04-29T12:55:00.470612377Z</time></trkpt><trkpt lat="40.148215" lon="-5.720905"><ele>1081.540</ele><time>2026-04-29T12:55:20.470614571Z</time></trkpt><trkpt lat="40.148179" lon="-5.721834"><ele>1072.275</ele><time>2026-04-29T12:55:40.470616735Z</time></trkpt><trkpt lat="40.148119" lon="-5.722518"><ele>1074.021</ele><time>2026-04-29T12:56:00.470618970Z</time></trkpt><trkpt lat="40.148063" lon="-5.723133"><ele>1079.523</ele><time>2026-04-29T12:56:20.470621144Z</time></trkpt><trkpt lat="40.147906" lon="-5.724566"><ele>1082.430</ele><time>2026-04-29T12:56:40.470623308Z</time></trkpt><trkpt lat="40.147854" lon="-5.725289"><ele>1083.968</ele><time>2026-04-29T12:57:00.470625492Z</time></trkpt><trkpt lat="40.147641" lon="-5.726279"><ele>1075.193</ele><time>2026-04-29T12:57:20.470627746Z</time></trkpt><trkpt lat="40.147618" lon="-5.726944"><ele>1075.865</ele><time>2026-04-29T12:57:40.470629970Z</time></trkpt><trkpt lat="40.147454" lon="-5.727399"><ele>1070.021</ele><time>2026-04-29T12:58:00.470632224Z</time></trkpt><trkpt lat="40.147418" lon="-5.727775"><ele>1067.409</ele><time>2026-04-29T12:58:20.470634458Z</time></trkpt><trkpt lat="40.147321" lon="-5.727939"><ele>1062.571</ele><time>2026-04-29T12:58:40.470636603Z</time></trkpt><trkpt lat="40.147278" lon="-5.728147"><ele>1058.215</ele><time>2026-04-29T12:59:00.470638887Z</time></trkpt><trkpt lat="40.147199" lon="-5.728241"><ele>1053.920</ele><time>2026-04-29T12:59:20.470641071Z</time></trkpt><trkpt lat="40.147298" lon="-5.728460"><ele>1052.966</ele><time>2026-04-29T12:59:40.470643305Z</time></trkpt><trkpt lat="40.147346" lon="-5.729109"><ele>1038.821</ele><time>2026-04-29T13:00:00.470645479Z</time></trkpt><trkpt lat="40.147296" lon="-5.729337"><ele>1031.617</ele><time>2026-04-29T13:00:20.470647633Z</time></trkpt><trkpt lat="40.147134" lon="-5.729833"><ele>1013.079</ele><time>2026-04-29T13:00:40.470649837Z</time></trkpt><trkpt lat="40.147178" lon="-5.730149"><ele>1004.996</ele><time>2026-04-29T13:01:00.470652031Z</time></trkpt><trkpt lat="40.147371" lon="-5.730308"><ele>1005.244</ele><time>2026-04-29T13:01:20.470654276Z</time></trkpt><trkpt lat="40.147281" lon="-5.730406"><ele>1002.538</ele><time>2026-04-29T13:01:40.470656540Z</time></trkpt><trkpt lat="40.147436" lon="-5.730865"><ele>997.470</ele><time>2026-04-29T13:02:00.470658814Z</time></trkpt><trkpt lat="40.147328" lon="-5.730890"><ele>993.517</ele><time>2026-04-29T13:02:20.470661058Z</time></trkpt><trkpt lat="40.147158" lon="-5.730717"><ele>991.509</ele><time>2026-04-29T13:02:40.470663232Z</time></trkpt><trkpt lat="40.146970" lon="-5.730646"><ele>984.975</ele><time>2026-04-29T13:03:00.470665396Z</time></trkpt><trkpt lat="40.146919" lon="-5.730817"><ele>978.969</ele><time>2026-04-29T13:03:20.470667540Z</time></trkpt><trkpt lat="40.147020" lon="-5.731114"><ele>978.794</ele><time>2026-04-29T13:03:40.470669724Z</time></trkpt><trkpt lat="40.147118" lon="-5.731714"><ele>974.750</ele><time>2026-04-29T13:04:00.470671879Z</time></trkpt><trkpt lat="40.147190" lon="-5.732361"><ele>970.725</ele><time>2026-04-29T13:04:20.470674083Z</time></trkpt><trkpt lat="40.147456" lon="-5.733022"><ele>964.291</ele><time>2026-04-29T13:04:40.470676247Z</time></trkpt><trkpt lat="40.147692" lon="-5.733589"><ele>965.323</ele><time>2026-04-29T13:05:00.470678361Z</time></trkpt><trkpt lat="40.147896" lon="-5.733787"><ele>970.440</ele><time>2026-04-29T13:05:20.470680545Z</time></trkpt><trkpt lat="40.148293" lon="-5.733899"><ele>978.338</ele><time>2026-04-29T13:05:40.470682799Z</time></trkpt><trkpt lat="40.148469" lon="-5.734426"><ele>1005.388</ele><time>2026-04-29T13:06:00.470685043Z</time></trkpt><trkpt lat="40.148206" lon="-5.734991"><ele>1004.324</ele><time>2026-04-29T13:06:20.470691565Z</time></trkpt><trkpt lat="40.148034" lon="-5.735513"><ele>1006.026</ele><time>2026-04-29T13:06:40.470693779Z</time></trkpt><trkpt lat="40.147841" lon="-5.735918"><ele>1002.909</ele><time>2026-04-29T13:07:00.470696004Z</time></trkpt><trkpt lat="40.147665" lon="-5.736053"><ele>1004.020</ele><time>2026-04-29T13:07:20.470698228Z</time></trkpt><trkpt lat="40.147538" lon="-5.735846"><ele>1001.714</ele><time>2026-04-29T13:07:40.470700422Z</time></trkpt><trkpt lat="40.147291" lon="-5.735954"><ele>1007.119</ele><time>2026-04-29T13:08:00.470702616Z</time></trkpt><trkpt lat="40.147373" lon="-5.736614"><ele>1022.515</ele><time>2026-04-29T13:08:20.470704760Z</time></trkpt><trkpt lat="40.147512" lon="-5.737702"><ele>1052.670</ele><time>2026-04-29T13:08:40.470706954Z</time></trkpt><trkpt lat="40.147484" lon="-5.738421"><ele>1080.926</ele><time>2026-04-29T13:09:00.470709138Z</time></trkpt><trkpt lat="40.147284" lon="-5.739214"><ele>1116.728</ele><time>2026-04-29T13:09:20.470711302Z</time></trkpt><trkpt lat="40.147279" lon="-5.739450"><ele>1125.125</ele><time>2026-04-29T13:09:40.470713526Z</time></trkpt><trkpt lat="40.146656" lon="-5.739239"><ele>1150.373</ele><time>2026-04-29T13:10:00.470715701Z</time></trkpt><trkpt lat="40.146053" lon="-5.739099"><ele>1151.357</ele><time>2026-04-29T13:10:20.470717945Z</time></trkpt><trkpt lat="40.145635" lon="-5.739141"><ele>1146.000</ele><time>2026-04-29T13:10:40.470720239Z</time></trkpt><trkpt lat="40.145164" lon="-5.739291"><ele>1139.720</ele><time>2026-04-29T13:11:00.470722533Z</time></trkpt><trkpt lat="40.144830" lon="-5.739026"><ele>1119.209</ele><time>2026-04-29T13:11:20.470724757Z</time></trkpt><trkpt lat="40.144331" lon="-5.739150"><ele>1117.287</ele><time>2026-04-29T13:11:40.470726972Z</time></trkpt><trkpt lat="40.143965" lon="-5.739328"><ele>1110.771</ele><time>2026-04-29T13:12:00.470729126Z</time></trkpt><trkpt lat="40.143590" lon="-5.739671"><ele>1103.536</ele><time>2026-04-29T13:12:20.470731310Z</time></trkpt><trkpt lat="40.142973" lon="-5.739933"><ele>1096.352</ele><time>2026-04-29T13:12:40.470733524Z</time></trkpt><trkpt lat="40.142453" lon="-5.739898"><ele>1081.317</ele><time>2026-04-29T13:13:00.470735708Z</time></trkpt><trkpt lat="40.141965" lon="-5.739653"><ele>1068.653</ele><time>2026-04-29T13:13:20.470737852Z</time></trkpt><trkpt lat="40.141598" lon="-5.739293"><ele>1064.095</ele><time>2026-04-29T13:13:40.470740056Z</time></trkpt><trkpt lat="40.141078" lon="-5.739323"><ele>1062.272</ele><time>2026-04-29T13:14:00.470742270Z</time></trkpt><trkpt lat="40.140444" lon="-5.739198"><ele>1047.320</ele><time>2026-04-29T13:14:20.470744484Z</time></trkpt><trkpt lat="40.140260" lon="-5.738755"><ele>1042.558</ele><time>2026-04-29T13:14:40.470746789Z</time></trkpt><trkpt lat="40.140145" lon="-5.738289"><ele>1036.652</ele><time>2026-04-29T13:15:00.470749023Z</time></trkpt><trkpt lat="40.139944" lon="-5.738173"><ele>1031.017</ele><time>2026-04-29T13:15:20.470751217Z</time></trkpt><trkpt lat="40.139762" lon="-5.738456"><ele>1028.109</ele><time>2026-04-29T13:15:40.470753431Z</time></trkpt><trkpt lat="40.139678" lon="-5.738752"><ele>1024.657</ele><time>2026-04-29T13:16:00.470755645Z</time></trkpt><trkpt lat="40.139615" lon="-5.739062"><ele>1019.661</ele><time>2026-04-29T13:16:20.470757849Z</time></trkpt><trkpt lat="40.139455" lon="-5.739023"><ele>1015.916</ele><time>2026-04-29T13:16:40.470760043Z</time></trkpt><trkpt lat="40.139284" lon="-5.738828"><ele>1014.062</ele><time>2026-04-29T13:17:00.470762248Z</time></trkpt><trkpt lat="40.139186" lon="-5.738403"><ele>1010.897</ele><time>2026-04-29T13:17:20.470764432Z</time></trkpt><trkpt lat="40.138993" lon="-5.738005"><ele>1003.163</ele><time>2026-04-29T13:17:40.470766676Z</time></trkpt><trkpt lat="40.138904" lon="-5.737515"><ele>995.675</ele><time>2026-04-29T13:18:00.470768900Z</time></trkpt><trkpt lat="40.139016" lon="-5.737071"><ele>992.662</ele><time>2026-04-29T13:18:20.470771094Z</time></trkpt><trkpt lat="40.139192" lon="-5.736754"><ele>991.030</ele><time>2026-04-29T13:18:40.470773318Z</time></trkpt><trkpt lat="40.139511" lon="-5.736520"><ele>987.663</ele><time>2026-04-29T13:19:00.470775603Z</time></trkpt><trkpt lat="40.139627" lon="-5.736314"><ele>984.044</ele><time>2026-04-29T13:19:20.470777787Z</time></trkpt><trkpt lat="40.139503" lon="-5.736169"><ele>979.518</ele><time>2026-04-29T13:19:40.470779981Z</time></trkpt><trkpt lat="40.139233" lon="-5.735948"><ele>973.409</ele><time>2026-04-29T13:20:00.470782165Z</time></trkpt><trkpt lat="40.139058" lon="-5.735991"><ele>969.768</ele><time>2026-04-29T13:20:20.470784329Z</time></trkpt><trkpt lat="40.138841" lon="-5.736238"><ele>965.012</ele><time>2026-04-29T13:20:40.470786473Z</time></trkpt><trkpt lat="40.138711" lon="-5.736624"><ele>969.747</ele><time>2026-04-29T13:21:00.470788667Z</time></trkpt><trkpt lat="40.138358" lon="-5.737020"><ele>967.373</ele><time>2026-04-29T13:21:20.470790821Z</time></trkpt><trkpt lat="40.138227" lon="-5.737032"><ele>962.268</ele><time>2026-04-29T13:21:40.470793015Z</time></trkpt><trkpt lat="40.138333" lon="-5.736757"><ele>960.354</ele><time>2026-04-29T13:22:00.470795189Z</time></trkpt><trkpt lat="40.138486" lon="-5.736480"><ele>958.516</ele><time>2026-04-29T13:22:20.470797353Z</time></trkpt><trkpt lat="40.138547" lon="-5.736108"><ele>952.833</ele><time>2026-04-29T13:22:40.470799487Z</time></trkpt><trkpt lat="40.138582" lon="-5.735689"><ele>947.111</ele><time>2026-04-29T13:23:00.470801651Z</time></trkpt><trkpt lat="40.138402" lon="-5.735594"><ele>943.583</ele><time>2026-04-29T13:23:20.470803855Z</time></trkpt><trkpt lat="40.138164" lon="-5.735674"><ele>939.225</ele><time>2026-04-29T13:23:40.470806040Z</time></trkpt><trkpt lat="40.138009" lon="-5.736024"><ele>937.717</ele><time>2026-04-29T13:24:00.470808234Z</time></trkpt><trkpt lat="40.137703" lon="-5.737327"><ele>940.509</ele><time>2026-04-29T13:24:20.470810398Z</time></trkpt><trkpt lat="40.137583" lon="-5.738061"><ele>944.780</ele><time>2026-04-29T13:24:40.470812592Z</time></trkpt><trkpt lat="40.137622" lon="-5.738472"><ele>945.024</ele><time>2026-04-29T13:25:00.470814776Z</time></trkpt><trkpt lat="40.137788" lon="-5.738921"><ele>945.859</ele><time>2026-04-29T13:25:20.470816940Z</time></trkpt><trkpt lat="40.137950" lon="-5.739303"><ele>943.945</ele><time>2026-04-29T13:25:40.470819114Z</time></trkpt><trkpt lat="40.138408" lon="-5.739855"><ele>945.380</ele><time>2026-04-29T13:26:00.470821288Z</time></trkpt><trkpt lat="40.138941" lon="-5.740384"><ele>952.766</ele><time>2026-04-29T13:26:20.470823462Z</time></trkpt><trkpt lat="40.139312" lon="-5.741142"><ele>962.668</ele><time>2026-04-29T13:26:40.470826237Z</time></trkpt><trkpt lat="40.139142" lon="-5.741320"><ele>950.925</ele><time>2026-04-29T13:27:00.470828401Z</time></trkpt><trkpt lat="40.138708" lon="-5.740945"><ele>933.943</ele><time>2026-04-29T13:27:20.470830555Z</time></trkpt><trkpt lat="40.137911" lon="-5.740583"><ele>905.953</ele><time>2026-04-29T13:27:40.470832800Z</time></trkpt><trkpt lat="40.137103" lon="-5.740302"><ele>881.804</ele><time>2026-04-29T13:28:00.470835024Z</time></trkpt><trkpt lat="40.136225" lon="-5.739893"><ele>861.514</ele><time>2026-04-29T13:28:20.470837208Z</time></trkpt><trkpt lat="40.136259" lon="-5.740138"><ele>857.309</ele><time>2026-04-29T13:28:40.470841686Z</time></trkpt><trkpt lat="40.136462" lon="-5.740423"><ele>864.757</ele><time>2026-04-29T13:29:00.470843830Z</time></trkpt><trkpt lat="40.136223" lon="-5.740590"><ele>863.291</ele><time>2026-04-29T13:29:20.470846004Z</time></trkpt><trkpt lat="40.135755" lon="-5.740659"><ele>860.236</ele><time>2026-04-29T13:29:40.470848208Z</time></trkpt><trkpt lat="40.134983" lon="-5.740634"><ele>846.382</ele><time>2026-04-29T13:30:00.470850423Z</time></trkpt><trkpt lat="40.134741" lon="-5.740761"><ele>843.267</ele><time>2026-04-29T13:30:20.470852567Z</time></trkpt><trkpt lat="40.134347" lon="-5.740889"><ele>838.223</ele><time>2026-04-29T13:30:40.470854691Z</time></trkpt><trkpt lat="40.133892" lon="-5.740809"><ele>850.365</ele><time>2026-04-29T13:31:00.470856855Z</time></trkpt><trkpt lat="40.133566" lon="-5.740703"><ele>846.682</ele><time>2026-04-29T13:31:20.470863447Z</time></trkpt><trkpt lat="40.133256" lon="-5.740608"><ele>845.050</ele><time>2026-04-29T13:31:40.470865681Z</time></trkpt><trkpt lat="40.133100" lon="-5.739821"><ele>852.571</ele><time>2026-04-29T13:32:00.470867975Z</time></trkpt><trkpt lat="40.133021" lon="-5.738933"><ele>858.641</ele><time>2026-04-29T13:32:20.470870160Z</time></trkpt><trkpt lat="40.132928" lon="-5.737881"><ele>860.615</ele><time>2026-04-29T13:32:40.470872374Z</time></trkpt><trkpt lat="40.132882" lon="-5.737011"><ele>851.509</ele><time>2026-04-29T13:33:00.470874518Z</time></trkpt><trkpt lat="40.132634" lon="-5.736346"><ele>840.499</ele><time>2026-04-29T13:33:20.470876682Z</time></trkpt><trkpt lat="40.132505" lon="-5.735891"><ele>851.353</ele><time>2026-04-29T13:33:40.470878826Z</time></trkpt><trkpt lat="40.132642" lon="-5.735697"><ele>846.868</ele><time>2026-04-29T13:34:00.470881050Z</time></trkpt><trkpt lat="40.132754" lon="-5.735263"><ele>846.924</ele><time>2026-04-29T13:34:20.470883224Z</time></trkpt><trkpt lat="40.132865" lon="-5.734540"><ele>835.569</ele><time>2026-04-29T13:34:40.470885358Z</time></trkpt><trkpt lat="40.133135" lon="-5.735470"><ele>824.955</ele><time>2026-04-29T13:35:00.470887502Z</time></trkpt><trkpt lat="40.132847" lon="-5.736201"><ele>830.917</ele><time>2026-04-29T13:35:20.470889626Z</time></trkpt><trkpt lat="40.132950" lon="-5.736508"><ele>832.474</ele><time>2026-04-29T13:35:40.470891770Z</time></trkpt><trkpt lat="40.133408" lon="-5.737143"><ele>825.452</ele><time>2026-04-29T13:36:00.470893934Z</time></trkpt><trkpt lat="40.133588" lon="-5.738249"><ele>826.398</ele><time>2026-04-29T13:36:20.470896168Z</time></trkpt><trkpt lat="40.133789" lon="-5.738896"><ele>824.015</ele><time>2026-04-29T13:36:40.470898352Z</time></trkpt><trkpt lat="40.134052" lon="-5.739421"><ele>820.426</ele><time>2026-04-29T13:37:00.470900506Z</time></trkpt><trkpt lat="40.134108" lon="-5.738767"><ele>811.309</ele><time>2026-04-29T13:37:20.470902680Z</time></trkpt><trkpt lat="40.134099" lon="-5.737690"><ele>803.231</ele><time>2026-04-29T13:37:40.470904844Z</time></trkpt><trkpt lat="40.133879" lon="-5.736027"><ele>791.825</ele><time>2026-04-29T13:38:00.470906988Z</time></trkpt><trkpt lat="40.133972" lon="-5.734842"><ele>784.930</ele><time>2026-04-29T13:38:20.470909173Z</time></trkpt><trkpt lat="40.133832" lon="-5.734274"><ele>786.546</ele><time>2026-04-29T13:38:40.470911307Z</time></trkpt><trkpt lat="40.134164" lon="-5.733019"><ele>763.111</ele><time>2026-04-29T13:39:00.470913461Z</time></trkpt><trkpt lat="40.134334" lon="-5.733655"><ele>760.427</ele><time>2026-04-29T13:39:20.470915575Z</time></trkpt><trkpt lat="40.134420" lon="-5.732860"><ele>750.479</ele><time>2026-04-29T13:39:40.470917729Z</time></trkpt><trkpt lat="40.134128" lon="-5.730629"><ele>740.236</ele><time>2026-04-29T13:40:00.470919863Z</time></trkpt><trkpt lat="40.133910" lon="-5.729489"><ele>726.664</ele><time>2026-04-29T13:40:20.470922067Z</time></trkpt><trkpt lat="40.134015" lon="-5.729309"><ele>720.155</ele><time>2026-04-29T13:40:40.470924291Z</time></trkpt><trkpt lat="40.134199" lon="-5.729396"><ele>718.607</ele><time>2026-04-29T13:41:00.470926495Z</time></trkpt><trkpt lat="40.134262" lon="-5.729230"><ele>714.617</ele><time>2026-04-29T13:41:20.470928689Z</time></trkpt><trkpt lat="40.134071" lon="-5.728984"><ele>712.909</ele><time>2026-04-29T13:41:40.470930873Z</time></trkpt><trkpt lat="40.134153" lon="-5.728818"><ele>710.137</ele><time>2026-04-29T13:42:00.470933037Z</time></trkpt><trkpt lat="40.134100" lon="-5.728458"><ele>708.571</ele><time>2026-04-29T13:42:20.470945981Z</time></trkpt><trkpt lat="40.133940" lon="-5.727957"><ele>706.316</ele><time>2026-04-29T13:42:40.470948135Z</time></trkpt><trkpt lat="40.133400" lon="-5.727603"><ele>700.292</ele><time>2026-04-29T13:43:00.470950320Z</time></trkpt><trkpt lat="40.132919" lon="-5.726689"><ele>697.177</ele><time>2026-04-29T13:43:20.470952474Z</time></trkpt><trkpt lat="40.132775" lon="-5.726003"><ele>691.413</ele><time>2026-04-29T13:43:40.470954648Z</time></trkpt><trkpt lat="40.132677" lon="-5.725159"><ele>688.395</ele><time>2026-04-29T13:44:00.470956812Z</time></trkpt><trkpt lat="40.132717" lon="-5.724650"><ele>686.642</ele><time>2026-04-29T13:44:20.470958996Z</time></trkpt><trkpt lat="40.132620" lon="-5.724226"><ele>681.940</ele><time>2026-04-29T13:44:40.470961200Z</time></trkpt><trkpt lat="40.132696" lon="-5.723757"><ele>681.291</ele><time>2026-04-29T13:45:00.470963504Z</time></trkpt><trkpt lat="40.132485" lon="-5.723136"><ele>678.981</ele><time>2026-04-29T13:45:20.470965728Z</time></trkpt><trkpt lat="40.131712" lon="-5.722977"><ele>670.219</ele><time>2026-04-29T13:45:40.470967932Z</time></trkpt><trkpt lat="40.131626" lon="-5.722048"><ele>672.009</ele><time>2026-04-29T13:46:00.470970157Z</time></trkpt><trkpt lat="40.131298" lon="-5.721603"><ele>668.761</ele><time>2026-04-29T13:46:20.470972331Z</time></trkpt><trkpt lat="40.131364" lon="-5.720775"><ele>666.045</ele><time>2026-04-29T13:46:40.470974505Z</time></trkpt><trkpt lat="40.131387" lon="-5.720216"><ele>665.020</ele><time>2026-04-29T13:47:00.470976639Z</time></trkpt><trkpt lat="40.131233" lon="-5.719726"><ele>662.296</ele><time>2026-04-29T13:47:20.470978753Z</time></trkpt><trkpt lat="40.130849" lon="-5.718682"><ele>650.961</ele><time>2026-04-29T13:47:40.470980867Z</time></trkpt><trkpt lat="40.130819" lon="-5.717955"><ele>649.987</ele><time>2026-04-29T13:48:00.470983051Z</time></trkpt><trkpt lat="40.130779" lon="-5.716450"><ele>644.429</ele><time>2026-04-29T13:48:20.470985245Z</time></trkpt><trkpt lat="40.130972" lon="-5.715100"><ele>645.026</ele><time>2026-04-29T13:48:40.470987459Z</time></trkpt><trkpt lat="40.130767" lon="-5.714889"><ele>642.794</ele><time>2026-04-29T13:49:00.470989633Z</time></trkpt><trkpt lat="40.130671" lon="-5.714473"><ele>643.511</ele><time>2026-04-29T13:49:20.470991947Z</time></trkpt><trkpt lat="40.130745" lon="-5.713770"><ele>648.221</ele><time>2026-04-29T13:49:40.470994272Z</time></trkpt><trkpt lat="40.130628" lon="-5.713082"><ele>651.903</ele><time>2026-04-29T13:50:00.470996546Z</time></trkpt><trkpt lat="40.130297" lon="-5.712162"><ele>650.909</ele><time>2026-04-29T13:50:20.470998710Z</time></trkpt><trkpt lat="40.130232" lon="-5.711499"><ele>654.913</ele><time>2026-04-29T13:50:40.471000924Z</time></trkpt><trkpt lat="40.130440" lon="-5.710631"><ele>659.537</ele><time>2026-04-29T13:51:00.471003098Z</time></trkpt><trkpt lat="40.129983" lon="-5.710078"><ele>657.462</ele><time>2026-04-29T13:51:20.471005262Z</time></trkpt><trkpt lat="40.129867" lon="-5.709800"><ele>660.748</ele><time>2026-04-29T13:51:40.471007406Z</time></trkpt><trkpt lat="40.129558" lon="-5.709352"><ele>662.453</ele><time>2026-04-29T13:52:00.471009560Z</time></trkpt><trkpt lat="40.129384" lon="-5.708790"><ele>666.819</ele><time>2026-04-29T13:52:20.471011714Z</time></trkpt><trkpt lat="40.129415" lon="-5.708136"><ele>673.971</ele><time>2026-04-29T13:52:40.471013828Z</time></trkpt><trkpt lat="40.129291" lon="-5.707800"><ele>676.078</ele><time>2026-04-29T13:53:00.471016513Z</time></trkpt><trkpt lat="40.129376" lon="-5.707710"><ele>678.186</ele><time>2026-04-29T13:53:20.471018738Z</time></trkpt><trkpt lat="40.129216" lon="-5.707387"><ele>680.856</ele><time>2026-04-29T13:53:40.471020942Z</time></trkpt><trkpt lat="40.129133" lon="-5.707010"><ele>682.859</ele><time>2026-04-29T13:54:00.471023136Z</time></trkpt><trkpt lat="40.129129" lon="-5.706425"><ele>687.714</ele><time>2026-04-29T13:54:20.471025280Z</time></trkpt><trkpt lat="40.129220" lon="-5.706163"><ele>690.309</ele><time>2026-04-29T13:54:40.471027534Z</time></trkpt><trkpt lat="40.129340" lon="-5.705716"><ele>692.457</ele><time>2026-04-29T13:55:00.471029678Z</time></trkpt><trkpt lat="40.129359" lon="-5.705382"><ele>693.541</ele><time>2026-04-29T13:55:20.471031882Z</time></trkpt><trkpt lat="40.129327" lon="-5.704703"><ele>692.986</ele><time>2026-04-29T13:55:40.471034006Z</time></trkpt><trkpt lat="40.129281" lon="-5.704358"><ele>690.242</ele><time>2026-04-29T13:56:00.471036160Z</time></trkpt><trkpt lat="40.129363" lon="-5.704017"><ele>690.357</ele><time>2026-04-29T13:56:20.471038294Z</time></trkpt><trkpt lat="40.129568" lon="-5.703526"><ele>691.873</ele><time>2026-04-29T13:56:40.471045107Z</time></trkpt><trkpt lat="40.129718" lon="-5.703066"><ele>692.065</ele><time>2026-04-29T13:57:00.471047331Z</time></trkpt><trkpt lat="40.129849" lon="-5.702689"><ele>691.522</ele><time>2026-04-29T13:57:20.471049435Z</time></trkpt><trkpt lat="40.130001" lon="-5.702246"><ele>687.310</ele><time>2026-04-29T13:57:40.471054695Z</time></trkpt><trkpt lat="40.130048" lon="-5.702059"><ele>685.121</ele><time>2026-04-29T13:58:00.471056949Z</time></trkpt><trkpt lat="40.129802" lon="-5.701660"><ele>678.941</ele><time>2026-04-29T13:58:20.471059143Z</time></trkpt><trkpt lat="40.129648" lon="-5.701105"><ele>677.805</ele><time>2026-04-29T13:58:40.471061337Z</time></trkpt><trkpt lat="40.129627" lon="-5.700733"><ele>672.009</ele><time>2026-04-29T13:59:00.471063481Z</time></trkpt><trkpt lat="40.129650" lon="-5.700188"><ele>663.374</ele><time>2026-04-29T13:59:20.471065645Z</time></trkpt><trkpt lat="40.129632" lon="-5.699585"><ele>652.998</ele><time>2026-04-29T13:59:40.471067819Z</time></trkpt><trkpt lat="40.129555" lon="-5.699605"><ele>651.823</ele><time>2026-04-29T14:00:00.471069993Z</time></trkpt><trkpt lat="40.129462" lon="-5.699459"><ele>648.469</ele><time>2026-04-29T14:00:20.471072168Z</time></trkpt><trkpt lat="40.129404" lon="-5.699487"><ele>648.014</ele><time>2026-04-29T14:00:40.471074362Z</time></trkpt><trkpt lat="40.129300" lon="-5.699433"><ele>646.570</ele><time>2026-04-29T14:01:00.471076616Z</time></trkpt><trkpt lat="40.128789" lon="-5.700072"><ele>647.812</ele><time>2026-04-29T14:01:20.471078790Z</time></trkpt><trkpt lat="40.128080" lon="-5.701150"><ele>648.469</ele><time>2026-04-29T14:01:40.471080944Z</time></trkpt></trkseg></trk></gpx>